CYSF

Stony Rapids Airport

Stony Rapids, Saskatchewan, Canada
METAR CYSF 212100Z AUTO 06010G15KT 9SM CLR 26/13 A2990 RMK SLP132 DENSITY ALT 2200FT
Observed Flight Rules
Jun-21 @ 21:00 UTC (an hour ago) Visual Flight Rules
Wind Visibility Clouds
60° at 10 knots
 Gusting to 15 knots
9 miles
  • Clear skies
Temperatures Readings
Current 26°C / 79°F
Dewpoint 13°C / 55°F
Humidity 45%
Altimeter 29.9" Hg
Pressure 1013.2 hPa
Elevation 250
METAR CYSF 212100Z AUTO 06010G15KT 9SM CLR 26/13 A2990 RMK SLP132 DENSITY ALT 2200FT
Observed Flight Rules
Jun-21 @ 21:00 UTC
(an hour ago)
VFR
Wind Visibility
60° at 10 knots
 Gusting to 15 knots
9 miles
Clouds
  • Clear skies
Temperature Dewpoint
26°C / 79°F 13°C / 55°F
Humidity Altimeter Pressure
45% 29.9" Hg 1013.2 hPa